Time;durP1;ratioP1;P1;durP2;ratioP2;P2;SDS_P1;SDS_P2;PMS_P1;PMS_P2;Temp;Humidity;BMP_temperature;BMP_pressure;BME280_temperature;BME280_humidity;BME280_pressure;Samples;Min_cycle;Max_cycle;Signal;HPM_P1;HPM_P2
2021/12/23 00:00:07;;;;;;;96.67;52.77;;;;;;;;;;5096623;27;21335;-33
2021/12/23 00:02:33;;;;;;;126.27;58.47;;;;;;;;;;5081173;28;20407;-32
2021/12/23 00:05:02;;;;;;;198.53;72.00;;;;;;;;;;5092234;27;20419;-32
2021/12/23 00:07:28;;;;;;;88.90;52.43;;;;;;;;;;5074265;27;20419;-33
2021/12/23 00:10:07;;;;;;;150.53;66.83;;;;;;;;;;5091468;27;21004;-33
2021/12/23 00:12:37;;;;;;;132.20;64.97;;;;;;;;;;5073863;27;20533;-40
2021/12/23 00:15:04;;;;;;;88.80;51.90;;;;;;;;;;5069131;28;20415;-39
2021/12/23 00:25:26;;;;;;;130.13;64.47;;;;;;;;;;5089653;27;20517;-40
2021/12/23 00:27:52;;;;;;;147.10;67.77;;;;;;;;;;5083245;28;20984;-38
2021/12/23 00:30:18;;;;;;;132.93;62.67;;;;;;;;;;5076519;27;20410;-40
2021/12/23 00:32:44;;;;;;;114.50;56.93;;;;;;;;;;5078274;27;20712;-39
2021/12/23 00:35:11;;;;;;;85.60;50.57;;;;;;;;;;5080210;28;20699;-39
2021/12/23 00:37:41;;;;;;;120.17;59.93;;;;;;;;;;5082747;28;20430;-41
2021/12/23 00:40:09;;;;;;;109.67;61.20;;;;;;;;;;5095249;27;20899;-43
2021/12/23 00:42:36;;;;;;;180.03;68.77;;;;;;;;;;5092899;27;20411;-41
2021/12/23 00:45:03;;;;;;;122.57;58.83;;;;;;;;;;5076977;28;20928;-41
2021/12/23 00:47:29;;;;;;;136.07;64.63;;;;;;;;;;5082020;27;20464;-42
2021/12/23 00:49:58;;;;;;;206.80;71.30;;;;;;;;;;5075902;28;21250;-39
2021/12/23 00:52:30;;;;;;;105.00;54.90;;;;;;;;;;5068034;28;20424;-40
2021/12/23 00:54:56;;;;;;;144.90;65.70;;;;;;;;;;5063695;28;20792;-41
2021/12/23 00:57:27;;;;;;;157.80;67.27;;;;;;;;;;5078790;27;20472;-39
2021/12/23 00:59:54;;;;;;;186.67;68.57;;;;;;;;;;5057333;28;20450;-39
2021/12/23 01:02:24;;;;;;;120.77;56.00;;;;;;;;;;5080311;27;20846;-39
2021/12/23 01:04:50;;;;;;;140.30;64.53;;;;;;;;;;5060718;28;20424;-40
2021/12/23 01:07:16;;;;;;;240.70;76.57;;;;;;;;;;5065223;27;20425;-40
2021/12/23 01:09:42;;;;;;;101.87;56.93;;;;;;;;;;5084058;27;20436;-39
2021/12/23 01:12:14;;;;;;;141.77;66.63;;;;;;;;;;5064281;28;20413;-44
2021/12/23 01:14:55;;;;;;;157.43;69.83;;;;;;;;;;5060240;28;20650;-41
2021/12/23 01:17:30;;;;;;;129.53;64.00;;;;;;;;;;5066895;27;20524;-42
2021/12/23 01:19:57;;;;;;;172.60;71.40;;;;;;;;;;5060793;28;20443;-39
2021/12/23 01:22:24;;;;;;;147.53;68.70;;;;;;;;;;5059858;27;20880;-42
2021/12/23 01:24:50;;;;;;;153.57;68.20;;;;;;;;;;5061539;28;20431;-42
2021/12/23 01:27:17;;;;;;;108.83;59.37;;;;;;;;;;5079824;28;20434;-43
2021/12/23 01:29:43;;;;;;;155.27;69.87;;;;;;;;;;5065062;28;20526;-42
2021/12/23 01:32:10;;;;;;;104.83;55.90;;;;;;;;;;5059907;28;20421;-41
2021/12/23 01:34:36;;;;;;;91.83;54.17;;;;;;;;;;5061775;28;20417;-43
2021/12/23 01:37:04;;;;;;;73.70;46.40;;;;;;;;;;5063379;28;21020;-41
2021/12/23 01:39:30;;;;;;;96.40;55.83;;;;;;;;;;5061738;28;21079;-40
2021/12/23 01:41:59;;;;;;;75.53;47.30;;;;;;;;;;5078793;28;20463;-43
2021/12/23 01:44:25;;;;;;;83.27;49.60;;;;;;;;;;5062073;28;21631;-41
2021/12/23 01:46:51;;;;;;;68.70;44.13;;;;;;;;;;5078918;28;20431;-42
2021/12/23 01:49:17;;;;;;;77.67;47.97;;;;;;;;;;5079951;27;20490;-42
2021/12/23 01:51:43;;;;;;;74.17;46.40;;;;;;;;;;5064637;28;20420;-43
2021/12/23 01:54:10;;;;;;;59.70;40.00;;;;;;;;;;5061599;28;20439;-42
2021/12/23 01:56:36;;;;;;;80.87;48.07;;;;;;;;;;5060215;28;20457;-42
2021/12/23 01:59:02;;;;;;;80.80;47.87;;;;;;;;;;5063603;28;20419;-43
2021/12/23 02:01:28;;;;;;;77.47;45.87;;;;;;;;;;5062315;28;20444;-42
2021/12/23 02:03:54;;;;;;;88.47;50.83;;;;;;;;;;5057619;28;20749;-44
2021/12/23 02:06:20;;;;;;;72.27;44.90;;;;;;;;;;5073783;27;20505;-41
2021/12/23 02:08:49;;;;;;;86.10;50.43;;;;;;;;;;5076813;27;20435;-42
2021/12/23 02:11:15;;;;;;;84.70;49.00;;;;;;;;;;5085824;28;20680;-42
2021/12/23 02:13:41;;;;;;;65.63;42.10;;;;;;;;;;5072820;28;20527;-39
2021/12/23 02:16:10;;;;;;;64.83;41.10;;;;;;;;;;5060443;28;21540;-43
2021/12/23 02:18:36;;;;;;;65.73;41.40;;;;;;;;;;5062436;28;20938;-43
2021/12/23 02:21:03;;;;;;;75.70;45.53;;;;;;;;;;5064410;28;20746;-43
2021/12/23 02:23:29;;;;;;;80.13;47.17;;;;;;;;;;5078297;27;20971;-42
2021/12/23 02:25:55;;;;;;;90.57;50.33;;;;;;;;;;5065630;28;20431;-43
2021/12/23 02:28:22;;;;;;;65.27;41.10;;;;;;;;;;5075354;27;20936;-42
2021/12/23 02:30:51;;;;;;;70.23;43.70;;;;;;;;;;5060132;28;20425;-44
2021/12/23 02:33:25;;;;;;;71.20;43.50;;;;;;;;;;5067289;28;20893;-40
2021/12/23 02:35:52;;;;;;;89.70;47.87;;;;;;;;;;5061906;28;20488;-39
2021/12/23 02:38:18;;;;;;;103.17;49.97;;;;;;;;;;5058814;28;20508;-41
2021/12/23 02:40:47;;;;;;;96.43;49.13;;;;;;;;;;5066623;28;20530;-37
2021/12/23 02:43:16;;;;;;;107.73;51.37;;;;;;;;;;5066356;28;20416;-39
2021/12/23 02:45:43;;;;;;;119.70;54.80;;;;;;;;;;5077764;27;20432;-41
2021/12/23 02:48:13;;;;;;;103.60;49.07;;;;;;;;;;5077519;27;20428;-38
2021/12/23 02:50:39;;;;;;;122.57;55.60;;;;;;;;;;5078344;28;20847;-40
2021/12/23 02:53:05;;;;;;;107.63;52.60;;;;;;;;;;5066060;28;20423;-42
2021/12/23 02:55:31;;;;;;;109.43;52.87;;;;;;;;;;5065398;27;21207;-43
2021/12/23 02:57:58;;;;;;;84.67;45.13;;;;;;;;;;5060148;28;20862;-44
2021/12/23 03:00:24;;;;;;;122.20;56.67;;;;;;;;;;5058927;28;21074;-39
2021/12/23 03:02:50;;;;;;;92.13;49.67;;;;;;;;;;5058988;28;20561;-38
2021/12/23 03:05:16;;;;;;;112.63;53.20;;;;;;;;;;5068464;28;20834;-37
2021/12/23 03:07:42;;;;;;;111.67;54.60;;;;;;;;;;5063310;28;20821;-39
2021/12/23 03:10:09;;;;;;;120.70;54.67;;;;;;;;;;5079329;27;20429;-41
2021/12/23 03:12:38;;;;;;;101.83;52.13;;;;;;;;;;5053308;28;20960;-40
2021/12/23 03:15:05;;;;;;;112.20;55.30;;;;;;;;;;5076498;28;21083;-41
2021/12/23 03:17:31;;;;;;;128.27;58.43;;;;;;;;;;5056490;28;20776;-42
2021/12/23 03:19:57;;;;;;;96.90;48.47;;;;;;;;;;5058414;28;20455;-38
2021/12/23 03:22:24;;;;;;;127.10;58.83;;;;;;;;;;5061861;28;20429;-42
2021/12/23 03:24:50;;;;;;;120.90;56.87;;;;;;;;;;5068354;28;20543;-38
2021/12/23 03:27:16;;;;;;;127.43;57.90;;;;;;;;;;5073912;28;20741;-41
2021/12/23 03:29:44;;;;;;;143.37;62.70;;;;;;;;;;5066118;28;20885;-41
2021/12/23 03:32:10;;;;;;;122.03;58.40;;;;;;;;;;5062347;28;20886;-41
2021/12/23 03:34:39;;;;;;;145.40;65.10;;;;;;;;;;5054441;28;20433;-40
2021/12/23 03:37:05;;;;;;;155.57;66.43;;;;;;;;;;5059524;28;20432;-43
2021/12/23 03:39:31;;;;;;;126.30;60.07;;;;;;;;;;5057783;28;20889;-41
2021/12/23 03:42:00;;;;;;;109.70;54.90;;;;;;;;;;5058889;28;20598;-43
2021/12/23 03:44:26;;;;;;;121.27;56.60;;;;;;;;;;5062322;28;20431;-42
2021/12/23 03:46:53;;;;;;;121.43;58.67;;;;;;;;;;5055856;28;20703;-44
2021/12/23 03:49:19;;;;;;;121.57;56.27;;;;;;;;;;5073258;28;20421;-43
2021/12/23 03:51:45;;;;;;;133.40;58.07;;;;;;;;;;5057491;28;20423;-44
2021/12/23 03:54:11;;;;;;;118.23;54.53;;;;;;;;;;5072680;28;20489;-41
2021/12/23 03:56:37;;;;;;;146.53;62.67;;;;;;;;;;5076981;28;20440;-39
2021/12/23 03:59:06;;;;;;;197.73;73.60;;;;;;;;;;5057380;28;20413;-44
2021/12/23 04:01:33;;;;;;;129.30;56.50;;;;;;;;;;5056188;28;20600;-43
2021/12/23 04:03:59;;;;;;;178.63;70.23;;;;;;;;;;5057141;28;20817;-43
2021/12/23 04:06:26;;;;;;;210.60;76.20;;;;;;;;;;5077230;28;20659;-41
2021/12/23 04:08:54;;;;;;;192.73;71.00;;;;;;;;;;5073423;28;20733;-43
2021/12/23 04:11:20;;;;;;;197.57;73.27;;;;;;;;;;5073374;28;20433;-41
2021/12/23 04:13:47;;;;;;;189.27;71.13;;;;;;;;;;5059050;28;20499;-43
2021/12/23 04:16:13;;;;;;;149.87;61.43;;;;;;;;;;5061768;28;20806;-44
2021/12/23 04:18:39;;;;;;;183.07;68.13;;;;;;;;;;5056488;28;20547;-43
2021/12/23 04:21:05;;;;;;;311.07;88.27;;;;;;;;;;5056315;28;20460;-44
2021/12/23 04:23:32;;;;;;;175.47;66.17;;;;;;;;;;5066193;28;20425;-43
2021/12/23 04:25:58;;;;;;;138.63;59.30;;;;;;;;;;5058149;28;20421;-42
2021/12/23 04:28:25;;;;;;;231.03;75.47;;;;;;;;;;5062018;28;20659;-43
2021/12/23 04:30:52;;;;;;;128.30;58.23;;;;;;;;;;5057946;28;21119;-40
2021/12/23 04:33:18;;;;;;;176.17;66.23;;;;;;;;;;5081483;27;21094;-44
2021/12/23 04:35:45;;;;;;;178.80;66.77;;;;;;;;;;5065441;28;20425;-42
2021/12/23 04:38:11;;;;;;;182.83;65.93;;;;;;;;;;5059361;28;20839;-43
2021/12/23 04:40:37;;;;;;;282.83;83.20;;;;;;;;;;5064577;28;20851;-40
2021/12/23 04:43:08;;;;;;;182.30;68.70;;;;;;;;;;5065055;28;20523;-39
2021/12/23 04:45:35;;;;;;;250.97;81.00;;;;;;;;;;5060575;28;20870;-44
2021/12/23 04:48:03;;;;;;;130.93;57.33;;;;;;;;;;5076591;28;20908;-43
2021/12/23 04:50:30;;;;;;;158.50;61.73;;;;;;;;;;5080117;28;20456;-42
2021/12/23 04:52:56;;;;;;;288.70;80.77;;;;;;;;;;5062131;28;20990;-40
2021/12/23 04:55:22;;;;;;;266.20;79.80;;;;;;;;;;5079698;27;20496;-43
2021/12/23 04:57:48;;;;;;;241.27;75.77;;;;;;;;;;5062139;28;20416;-39
2021/12/23 05:00:16;;;;;;;319.77;86.37;;;;;;;;;;5059664;28;20448;-42
2021/12/23 05:02:45;;;;;;;170.10;67.83;;;;;;;;;;5061861;28;20719;-43
2021/12/23 05:05:12;;;;;;;200.77;70.97;;;;;;;;;;5064623;28;20904;-43
2021/12/23 05:07:38;;;;;;;170.07;70.37;;;;;;;;;;5059390;28;20875;-41
2021/12/23 05:10:06;;;;;;;163.77;66.40;;;;;;;;;;5059450;28;20424;-41
2021/12/23 05:12:32;;;;;;;156.03;65.47;;;;;;;;;;5056640;28;20431;-43
2021/12/23 05:15:00;;;;;;;153.70;61.30;;;;;;;;;;5083325;28;20427;-42
2021/12/23 05:17:26;;;;;;;201.70;73.00;;;;;;;;;;5080979;28;20467;-43
2021/12/23 05:19:52;;;;;;;150.33;60.87;;;;;;;;;;5065154;28;20423;-42
2021/12/23 05:22:19;;;;;;;246.67;78.33;;;;;;;;;;5064690;28;20552;-44
2021/12/23 05:24:45;;;;;;;193.80;74.53;;;;;;;;;;5062576;28;20716;-43
2021/12/23 05:27:11;;;;;;;142.87;61.93;;;;;;;;;;5067137;28;20408;-43
2021/12/23 05:29:40;;;;;;;250.03;78.03;;;;;;;;;;5060931;27;20955;-43
2021/12/23 05:32:09;;;;;;;150.93;61.90;;;;;;;;;;5073493;28;20831;-43
2021/12/23 05:34:35;;;;;;;196.03;72.27;;;;;;;;;;5062774;28;21028;-40
2021/12/23 05:37:01;;;;;;;268.57;83.70;;;;;;;;;;5060176;28;20405;-43
2021/12/23 05:39:27;;;;;;;180.83;66.90;;;;;;;;;;5057512;28;20733;-40
2021/12/23 05:41:56;;;;;;;264.90;78.27;;;;;;;;;;5058471;28;20456;-41
2021/12/23 05:44:22;;;;;;;168.97;66.37;;;;;;;;;;5061264;28;21098;-42
2021/12/23 05:46:48;;;;;;;309.17;88.30;;;;;;;;;;5063233;28;20518;-43
2021/12/23 05:49:14;;;;;;;306.90;86.13;;;;;;;;;;5055602;28;20411;-43
2021/12/23 05:51:43;;;;;;;178.37;66.67;;;;;;;;;;5056755;28;20528;-43
2021/12/23 05:54:12;;;;;;;261.87;81.50;;;;;;;;;;5056499;28;20413;-41
2021/12/23 05:56:38;;;;;;;263.53;81.80;;;;;;;;;;5059009;28;20413;-39
2021/12/23 05:59:04;;;;;;;307.57;85.83;;;;;;;;;;5063127;28;20421;-44
2021/12/23 06:01:31;;;;;;;332.27;91.10;;;;;;;;;;5060159;28;21233;-42
2021/12/23 06:04:00;;;;;;;177.30;68.33;;;;;;;;;;5060376;28;20420;-44
2021/12/23 06:06:26;;;;;;;278.20;81.80;;;;;;;;;;5060988;28;20985;-43
2021/12/23 06:08:52;;;;;;;298.77;79.70;;;;;;;;;;5077851;28;20428;-43
2021/12/23 06:11:18;;;;;;;286.87;84.13;;;;;;;;;;5061285;28;20667;-44
2021/12/23 06:13:44;;;;;;;223.00;76.90;;;;;;;;;;5060622;28;21094;-42
2021/12/23 06:16:10;;;;;;;187.20;65.63;;;;;;;;;;5060743;28;20744;-42
2021/12/23 06:18:37;;;;;;;270.07;76.27;;;;;;;;;;5060831;28;20430;-43
2021/12/23 06:21:11;;;;;;;266.80;77.67;;;;;;;;;;5061294;28;20583;-44
2021/12/23 06:23:44;;;;;;;205.00;66.87;;;;;;;;;;5060378;28;20439;-43
2021/12/23 06:26:11;;;;;;;231.83;70.93;;;;;;;;;;5057822;28;20891;-42
2021/12/23 06:28:37;;;;;;;194.97;68.57;;;;;;;;;;5055258;28;21036;-45
2021/12/23 06:31:03;;;;;;;269.37;77.07;;;;;;;;;;5074581;28;20430;-43
2021/12/23 06:33:29;;;;;;;219.40;67.90;;;;;;;;;;5076847;27;20420;-44
2021/12/23 06:35:55;;;;;;;269.33;74.73;;;;;;;;;;5063404;28;20427;-42
2021/12/23 06:38:21;;;;;;;280.27;75.80;;;;;;;;;;5083955;28;20453;-42
2021/12/23 06:40:50;;;;;;;273.60;74.20;;;;;;;;;;5060918;28;20448;-41
2021/12/23 06:43:16;;;;;;;242.97;70.20;;;;;;;;;;5059883;28;20430;-43
2021/12/23 06:45:43;;;;;;;201.43;63.90;;;;;;;;;;5075370;27;20432;-45
2021/12/23 06:48:15;;;;;;;271.57;73.53;;;;;;;;;;5075772;28;20444;-41
2021/12/23 06:50:41;;;;;;;221.33;64.77;;;;;;;;;;5056079;28;20442;-45
2021/12/23 06:53:07;;;;;;;243.30;72.77;;;;;;;;;;5055291;28;20807;-42
2021/12/23 06:55:35;;;;;;;219.90;68.13;;;;;;;;;;5073746;28;20769;-43
2021/12/23 06:58:01;;;;;;;210.73;65.87;;;;;;;;;;5058041;28;20437;-41
2021/12/23 07:00:29;;;;;;;214.27;69.93;;;;;;;;;;5063556;28;20576;-44
2021/12/23 07:02:56;;;;;;;277.50;75.30;;;;;;;;;;5062371;28;20540;-42
2021/12/23 07:05:25;;;;;;;218.07;68.87;;;;;;;;;;5060621;27;20865;-44
2021/12/23 07:08:24;;;;;;;216.43;69.40;;;;;;;;;;5062135;28;20419;-45
2021/12/23 07:10:37;;;;;;;191.50;65.33;;;;;;;;;;5083351;28;20771;-42
2021/12/23 07:13:04;;;;;;;232.57;69.83;;;;;;;;;;5075230;28;20773;-43
2021/12/23 07:15:32;;;;;;;274.07;75.33;;;;;;;;;;5058150;28;20842;-43
2021/12/23 07:17:58;;;;;;;198.23;65.43;;;;;;;;;;5062630;28;20456;-44
2021/12/23 07:20:25;;;;;;;236.47;70.87;;;;;;;;;;5058668;28;20985;-44
2021/12/23 07:22:52;;;;;;;368.33;85.03;;;;;;;;;;5074530;28;21144;-41
2021/12/23 07:25:18;;;;;;;209.77;67.10;;;;;;;;;;5063826;28;20802;-44
2021/12/23 07:27:44;;;;;;;271.10;73.20;;;;;;;;;;5076169;28;20430;-43
2021/12/23 07:30:12;;;;;;;223.50;71.07;;;;;;;;;;5071279;28;20423;-42
2021/12/23 07:32:38;;;;;;;309.93;79.93;;;;;;;;;;5061691;28;20702;-44
2021/12/23 07:35:04;;;;;;;197.47;68.87;;;;;;;;;;5079566;28;20415;-43
2021/12/23 07:37:30;;;;;;;229.33;73.47;;;;;;;;;;5055626;28;20425;-43
2021/12/23 07:39:59;;;;;;;239.00;73.10;;;;;;;;;;5072033;28;21812;-44
2021/12/23 07:42:27;;;;;;;266.30;76.60;;;;;;;;;;5068485;28;20419;-45
2021/12/23 07:44:56;;;;;;;205.63;67.03;;;;;;;;;;5062702;28;20789;-45
2021/12/23 07:47:25;;;;;;;203.73;66.37;;;;;;;;;;5056509;28;20722;-42
2021/12/23 07:49:51;;;;;;;212.47;70.00;;;;;;;;;;5085304;28;20424;-45
2021/12/23 07:52:17;;;;;;;274.50;75.63;;;;;;;;;;5089313;28;20853;-41
2021/12/23 07:54:46;;;;;;;208.37;71.33;;;;;;;;;;5075990;28;20416;-44
2021/12/23 07:57:15;;;;;;;314.13;80.97;;;;;;;;;;5070983;28;20834;-40
2021/12/23 07:59:41;;;;;;;222.43;71.43;;;;;;;;;;5076179;28;21002;-43
2021/12/23 08:02:26;;;;;;;265.40;77.60;;;;;;;;;;5077819;28;20485;-42
2021/12/23 08:04:52;;;;;;;199.87;68.73;;;;;;;;;;5078673;28;20748;-41
2021/12/23 08:07:20;;;;;;;228.93;72.17;;;;;;;;;;5079426;27;20877;-44
2021/12/23 08:09:54;;;;;;;311.80;79.93;;;;;;;;;;5069028;28;20415;-43
2021/12/23 08:12:20;;;;;;;270.93;77.93;;;;;;;;;;5088278;27;20407;-43
2021/12/23 08:14:46;;;;;;;264.17;77.37;;;;;;;;;;5098957;28;20415;-41
2021/12/23 08:17:15;;;;;;;214.00;68.77;;;;;;;;;;5090046;28;20411;-41
2021/12/23 08:19:41;;;;;;;242.27;71.80;;;;;;;;;;5097689;28;20765;-43
2021/12/23 08:22:09;;;;;;;235.50;70.87;;;;;;;;;;5078526;28;20444;-44
2021/12/23 08:24:38;;;;;;;188.80;67.13;;;;;;;;;;5071759;28;20416;-44
2021/12/23 08:27:07;;;;;;;194.40;68.00;;;;;;;;;;5073808;28;20421;-43
2021/12/23 08:29:33;;;;;;;232.70;72.70;;;;;;;;;;5090305;27;20403;-42
2021/12/23 08:32:03;;;;;;;183.13;63.37;;;;;;;;;;5078560;28;20912;-45
2021/12/23 08:34:34;;;;;;;169.03;59.43;;;;;;;;;;5065229;27;20424;-43
2021/12/23 08:37:00;;;;;;;170.43;62.60;;;;;;;;;;5061918;28;20424;-44
2021/12/23 08:39:29;;;;;;;175.90;62.67;;;;;;;;;;5083170;27;20504;-44
2021/12/23 08:41:55;;;;;;;200.07;65.17;;;;;;;;;;5066564;28;20510;-44
2021/12/23 08:44:26;;;;;;;174.70;62.70;;;;;;;;;;5075815;27;20547;-45
2021/12/23 08:46:53;;;;;;;177.90;62.07;;;;;;;;;;5086397;28;20489;-45
2021/12/23 08:49:19;;;;;;;166.60;60.77;;;;;;;;;;5090826;28;20508;-42
2021/12/23 08:51:46;;;;;;;165.97;59.37;;;;;;;;;;5096410;27;20718;-44
2021/12/23 08:54:12;;;;;;;157.50;56.63;;;;;;;;;;5065079;28;20421;-44
2021/12/23 08:56:39;;;;;;;158.03;57.80;;;;;;;;;;5073756;28;20945;-44
2021/12/23 08:59:12;;;;;;;146.37;56.00;;;;;;;;;;5074670;28;20514;-45
2021/12/23 09:01:43;;;;;;;150.03;54.43;;;;;;;;;;5094383;27;20455;-45
2021/12/23 09:04:09;;;;;;;150.67;54.83;;;;;;;;;;5074436;28;20411;-44
2021/12/23 09:06:35;;;;;;;145.87;58.50;;;;;;;;;;5069909;27;20930;-43
2021/12/23 09:09:02;;;;;;;157.77;57.73;;;;;;;;;;5076432;28;20788;-43
2021/12/23 09:11:28;;;;;;;154.87;57.60;;;;;;;;;;5070749;28;20451;-44
2021/12/23 09:13:57;;;;;;;152.80;57.67;;;;;;;;;;5071522;28;20530;-45
2021/12/23 09:16:26;;;;;;;173.63;59.67;;;;;;;;;;5066543;27;20419;-43
2021/12/23 09:21:21;;;;;;;178.03;61.07;;;;;;;;;;5063128;28;20513;-40
2021/12/23 09:23:48;;;;;;;196.87;64.40;;;;;;;;;;5060250;28;20470;-40
2021/12/23 09:26:14;;;;;;;161.37;56.83;;;;;;;;;;5061870;28;20424;-40
2021/12/23 09:34:06;;;;;;;183.67;59.87;;;;;;;;;;5064159;28;20850;-40
2021/12/23 09:36:33;;;;;;;189.40;57.37;;;;;;;;;;5060389;28;20547;-37
2021/12/23 09:38:59;;;;;;;221.67;61.13;;;;;;;;;;5045944;28;20451;-41
2021/12/23 09:41:26;;;;;;;190.63;59.07;;;;;;;;;;5063682;28;20452;-41
2021/12/23 09:43:56;;;;;;;196.50;60.03;;;;;;;;;;5038986;28;20600;-39
2021/12/23 09:46:23;;;;;;;168.47;56.70;;;;;;;;;;5059294;28;20421;-38
2021/12/23 09:48:50;;;;;;;197.73;58.80;;;;;;;;;;5048717;28;20412;-39
2021/12/23 09:51:18;;;;;;;210.43;60.93;;;;;;;;;;5044634;28;20424;-41
2021/12/23 09:53:46;;;;;;;185.70;55.57;;;;;;;;;;5062252;28;20500;-40
2021/12/23 09:56:12;;;;;;;193.87;56.37;;;;;;;;;;5059812;28;21058;-40
2021/12/23 09:58:40;;;;;;;183.40;53.57;;;;;;;;;;5060115;28;20543;-41
2021/12/23 10:01:07;;;;;;;177.47;52.30;;;;;;;;;;5042005;28;20451;-39
2021/12/23 10:03:41;;;;;;;153.17;49.80;;;;;;;;;;5061709;28;20413;-41
2021/12/23 10:06:08;;;;;;;140.20;45.97;;;;;;;;;;5059640;28;20435;-42
2021/12/23 10:08:34;;;;;;;132.73;47.37;;;;;;;;;;5062587;28;20866;-40
2021/12/23 10:11:12;;;;;;;127.13;47.30;;;;;;;;;;5062019;28;20718;-39
2021/12/23 10:33:11;;;;;;;125.00;47.00;;;;;;;;;;5043910;28;21307;-83
2021/12/23 10:38:30;;;;;;;102.23;43.37;;;;;;;;;;5043876;28;20551;-83
2021/12/23 10:41:02;;;;;;;117.97;45.50;;;;;;;;;;5029961;28;20461;-83
2021/12/23 10:43:31;;;;;;;109.17;44.63;;;;;;;;;;5029922;28;20405;-83
2021/12/23 10:46:00;;;;;;;101.73;42.53;;;;;;;;;;5031173;28;20422;-82
2021/12/23 10:48:30;;;;;;;94.20;41.53;;;;;;;;;;5027621;28;20418;-83
2021/12/23 10:51:02;;;;;;;91.07;38.20;;;;;;;;;;5029295;28;20568;-82
2021/12/23 10:59:11;;;;;;;107.70;43.77;;;;;;;;;;5045115;28;20524;-82
2021/12/23 11:01:56;;;;;;;104.93;43.63;;;;;;;;;;5045378;28;20451;-82
2021/12/23 11:04:25;;;;;;;111.77;43.37;;;;;;;;;;5043399;28;20422;-83
2021/12/23 11:07:11;;;;;;;107.17;43.17;;;;;;;;;;5029191;28;20782;-82
2021/12/23 11:09:54;;;;;;;100.97;41.57;;;;;;;;;;5028266;28;20464;-82
2021/12/23 11:30:32;;;;;;;97.10;42.27;;;;;;;;;;5045503;28;20426;-83
2021/12/23 11:37:47;;;;;;;102.80;45.10;;;;;;;;;;5043326;28;21059;-83
2021/12/23 11:40:38;;;;;;;122.57;48.90;;;;;;;;;;5030397;28;20523;-83
2021/12/23 11:45:40;;;;;;;131.27;50.97;;;;;;;;;;5047186;28;21685;-84
2021/12/23 11:48:08;;;;;;;129.83;51.33;;;;;;;;;;5034090;28;20416;-83
2021/12/23 11:50:42;;;;;;;129.27;53.20;;;;;;;;;;5028827;28;20445;-83
2021/12/23 11:53:12;;;;;;;136.93;54.50;;;;;;;;;;5033206;28;20995;-83
2021/12/23 11:55:42;;;;;;;133.03;53.10;;;;;;;;;;5046415;28;20437;-84
2021/12/23 11:58:08;;;;;;;140.93;55.47;;;;;;;;;;5028812;28;20426;-83
2021/12/23 12:00:42;;;;;;;138.77;54.10;;;;;;;;;;5031109;28;20506;-83
2021/12/23 12:03:09;;;;;;;128.90;51.83;;;;;;;;;;5027539;28;21279;-83
2021/12/23 12:05:40;;;;;;;132.00;52.47;;;;;;;;;;5023174;28;20430;-83
2021/12/23 12:08:07;;;;;;;136.67;53.10;;;;;;;;;;5042630;28;20434;-83
2021/12/23 12:10:34;;;;;;;130.33;54.50;;;;;;;;;;5026664;28;20502;-83
2021/12/23 12:13:00;;;;;;;115.53;47.77;;;;;;;;;;5026969;28;20441;-83
2021/12/23 12:15:39;;;;;;;118.53;49.27;;;;;;;;;;5044702;28;20433;-83
2021/12/23 12:18:15;;;;;;;99.63;46.63;;;;;;;;;;5026531;28;20413;-83
2021/12/23 12:20:46;;;;;;;104.90;45.33;;;;;;;;;;5040819;28;20448;-83
2021/12/23 12:23:32;;;;;;;103.73;46.30;;;;;;;;;;5042727;28;20412;-82
2021/12/23 12:26:03;;;;;;;94.97;44.67;;;;;;;;;;5028692;28;20876;-83
2021/12/23 12:28:29;;;;;;;105.70;47.10;;;;;;;;;;5041850;28;20439;-83
2021/12/23 12:31:00;;;;;;;103.40;45.90;;;;;;;;;;5030355;28;20612;-83
2021/12/23 12:33:27;;;;;;;98.53;44.17;;;;;;;;;;5041653;28;20501;-83
2021/12/23 12:36:02;;;;;;;100.50;44.57;;;;;;;;;;5043334;28;20865;-83
2021/12/23 12:38:32;;;;;;;104.53;45.17;;;;;;;;;;5025314;28;20434;-83
2021/12/23 12:40:58;;;;;;;91.27;43.37;;;;;;;;;;5029183;28;21055;-83
2021/12/23 12:43:34;;;;;;;96.10;45.20;;;;;;;;;;5030542;28;20549;-83
2021/12/23 12:46:02;;;;;;;89.63;41.03;;;;;;;;;;5027184;28;20513;-83
2021/12/23 12:48:47;;;;;;;102.60;46.50;;;;;;;;;;5042202;28;21334;-83
2021/12/23 12:51:20;;;;;;;100.83;45.50;;;;;;;;;;5035997;28;20421;-83
2021/12/23 12:54:03;;;;;;;95.27;45.43;;;;;;;;;;5031519;28;20436;-84
2021/12/23 12:56:30;;;;;;;89.77;43.63;;;;;;;;;;5031879;28;20429;-83
2021/12/23 12:58:56;;;;;;;90.20;42.03;;;;;;;;;;5032796;28;20522;-83
2021/12/23 13:01:33;;;;;;;87.73;42.20;;;;;;;;;;5044734;28;20445;-83
2021/12/23 13:04:01;;;;;;;91.70;45.23;;;;;;;;;;5046408;28;21221;-83
2021/12/23 13:06:38;;;;;;;86.20;43.97;;;;;;;;;;5035329;28;20547;-84
2021/12/23 13:09:12;;;;;;;90.83;43.63;;;;;;;;;;5035318;28;20421;-83
2021/12/23 13:11:43;;;;;;;93.10;45.70;;;;;;;;;;5036325;28;20452;-83
2021/12/23 13:14:14;;;;;;;93.17;44.40;;;;;;;;;;5037468;28;20577;-83
2021/12/23 13:16:55;;;;;;;86.37;43.00;;;;;;;;;;5034269;28;20834;-83
2021/12/23 13:19:22;;;;;;;83.00;41.00;;;;;;;;;;5034176;28;20409;-83
2021/12/23 13:21:49;;;;;;;81.63;41.93;;;;;;;;;;5032128;28;20446;-83
2021/12/23 13:24:21;;;;;;;75.23;40.10;;;;;;;;;;5032498;28;21210;-83
2021/12/23 13:26:48;;;;;;;81.47;41.40;;;;;;;;;;5032063;28;20413;-83
2021/12/23 13:29:15;;;;;;;78.13;40.90;;;;;;;;;;5037202;28;20423;-83
2021/12/23 13:31:43;;;;;;;74.40;39.77;;;;;;;;;;5030187;28;20778;-83
2021/12/23 13:34:23;;;;;;;81.57;43.10;;;;;;;;;;5049386;28;20446;-83
2021/12/23 13:36:54;;;;;;;71.83;39.40;;;;;;;;;;5028139;28;20525;-83
2021/12/23 13:39:26;;;;;;;75.23;39.97;;;;;;;;;;5047792;28;20491;-83
2021/12/23 13:41:57;;;;;;;74.83;39.77;;;;;;;;;;5034902;28;20461;-83
2021/12/23 13:44:25;;;;;;;72.70;40.13;;;;;;;;;;5029038;28;20549;-83
2021/12/23 13:47:10;;;;;;;71.50;39.23;;;;;;;;;;5047019;28;20453;-83
2021/12/23 13:49:47;;;;;;;71.23;39.43;;;;;;;;;;5034124;28;21005;-83
2021/12/23 13:52:34;;;;;;;76.33;41.63;;;;;;;;;;5035441;28;20658;-82
2021/12/23 13:55:09;;;;;;;73.27;39.10;;;;;;;;;;5046595;28;20437;-83
2021/12/23 13:57:38;;;;;;;73.13;39.27;;;;;;;;;;5049035;28;20421;-83
2021/12/23 14:00:14;;;;;;;70.07;38.90;;;;;;;;;;5049621;28;20420;-83
2021/12/23 14:02:42;;;;;;;71.83;38.37;;;;;;;;;;5031636;28;20449;-82
2021/12/23 14:05:10;;;;;;;72.77;39.73;;;;;;;;;;5047695;28;20426;-82
2021/12/23 14:07:44;;;;;;;71.47;39.73;;;;;;;;;;5032355;28;20445;-83
2021/12/23 14:10:29;;;;;;;72.33;39.53;;;;;;;;;;5033855;28;20540;-83
2021/12/23 14:12:59;;;;;;;76.50;38.93;;;;;;;;;;5029236;28;20470;-83
2021/12/23 14:15:29;;;;;;;73.53;40.37;;;;;;;;;;5030627;28;20437;-83
2021/12/23 14:18:02;;;;;;;72.50;39.53;;;;;;;;;;5031292;28;20426;-83
2021/12/23 14:23:20;;;;;;;77.43;38.97;;;;;;;;;;5050057;28;22120;-83
2021/12/23 14:25:49;;;;;;;72.07;39.30;;;;;;;;;;5036587;28;20453;-84
2021/12/23 14:28:17;;;;;;;75.60;38.67;;;;;;;;;;5045969;28;20426;-84
2021/12/23 14:30:46;;;;;;;78.60;41.43;;;;;;;;;;5034819;28;20433;-84
2021/12/23 14:33:15;;;;;;;72.67;39.63;;;;;;;;;;5045941;28;20465;-84
2021/12/23 14:35:51;;;;;;;80.77;42.70;;;;;;;;;;5035819;28;20426;-84
2021/12/23 14:38:23;;;;;;;80.23;42.83;;;;;;;;;;5030787;28;20413;-84
2021/12/23 14:41:07;;;;;;;78.83;42.50;;;;;;;;;;5047149;28;20450;-82
2021/12/23 14:43:55;;;;;;;84.00;43.30;;;;;;;;;;5036940;28;20419;-84
2021/12/23 14:46:24;;;;;;;79.67;40.67;;;;;;;;;;5032856;28;20531;-82
2021/12/23 14:49:09;;;;;;;81.00;41.50;;;;;;;;;;5047821;28;21413;-82
2021/12/23 14:51:37;;;;;;;81.83;40.87;;;;;;;;;;5030180;28;20429;-82
2021/12/23 14:54:14;;;;;;;78.17;41.17;;;;;;;;;;5048878;28;20429;-84
2021/12/23 14:56:51;;;;;;;77.03;40.60;;;;;;;;;;5033856;28;20429;-82
2021/12/23 14:59:19;;;;;;;76.03;40.67;;;;;;;;;;5033589;28;20615;-82
2021/12/23 15:01:47;;;;;;;75.10;39.80;;;;;;;;;;5031001;28;20461;-82
2021/12/23 15:04:15;;;;;;;78.83;40.67;;;;;;;;;;5030244;28;20508;-83
2021/12/23 15:07:14;;;;;;;76.27;41.37;;;;;;;;;;5045390;28;20430;-84
2021/12/23 15:09:41;;;;;;;84.47;43.40;;;;;;;;;;4986765;28;20466;-82
2021/12/23 15:12:15;;;;;;;76.27;41.10;;;;;;;;;;5032647;28;20792;-82
2021/12/23 15:14:47;;;;;;;88.33;44.93;;;;;;;;;;5030759;28;20472;-82
2021/12/23 15:17:18;;;;;;;84.07;43.00;;;;;;;;;;5046323;28;20958;-82
2021/12/23 15:19:51;;;;;;;86.93;42.43;;;;;;;;;;5031549;28;20877;-82
2021/12/23 15:22:19;;;;;;;82.67;42.23;;;;;;;;;;5044683;28;20479;-82
2021/12/23 15:24:45;;;;;;;85.17;42.77;;;;;;;;;;5030076;28;20415;-83
2021/12/23 15:27:22;;;;;;;90.13;43.07;;;;;;;;;;5036379;28;21720;-83
2021/12/23 15:29:50;;;;;;;84.83;41.63;;;;;;;;;;5045159;28;20512;-83